Crown Topaz — 3FAS9 — position and weather

sailwx.info

Track history (hours):
 
Tides and Currents Weather Stations Pressure Air Temp Water Temp Dewpoint Dewpoint Depression Visibility Wind Speed Wind Dir Waves Ship Positions

Crown Topaz

Last reported at 2015-Feb-28 05:18 UTC. Time now 2015-Mar-05 06:36 UTC.
Position N 16°54' W 062°35'.

Length 152 m; draft 6.7 m.

Type: Cargo ship. MMSI: 357144000.

Date/timePositionNaut miles runAvg speedWind from/ knotsBaromVisibWave heightAir tempDewpointWater temp
2015-Feb-28 05:18N 16°54' W 062°35'1519.8
2015-Feb-28 04:33N 16°43' W 062°25'2520.0
2015-Feb-28 03:19N 16°24' W 062°09'  
2015-Feb-22 23:27N 36°17' W 030°06'2319.4
2015-Feb-22 22:15N 36°31' W 029°43'1619.7
2015-Feb-22 21:25N 36°41' W 029°26'1719.4
2015-Feb-22 20:33N 36°50' W 029°09'1919.1
2015-Feb-22 19:33N 37°02' W 028°50'1919.0
2015-Feb-22 18:33N 37°13' W 028°31'1918.9
2015-Feb-22 17:33N 37°25' W 028°12'1918.7
2015-Feb-22 16:33N 37°35' W 027°53'1918.8
2015-Feb-22 15:33N 37°46' W 027°33'1919.2
2015-Feb-22 14:34N 37°58' W 027°14'1919.3
2015-Feb-22 13:33N 38°09' W 026°54'1919.3
2015-Feb-22 12:33N 38°21' W 026°34'1919.4
2015-Feb-22 11:33N 38°32' W 026°14'1919.4
2015-Feb-22 10:34N 38°43' W 025°54'1919.3
2015-Feb-22 09:33N 38°55' W 025°34'1919.1
2015-Feb-22 08:33N 39°06' W 025°14'1919.2
2015-Feb-22 07:34N 39°17' W 024°54'1919.1
2015-Feb-22 06:33N 39°29' W 024°34'1918.9
2015-Feb-22 05:32N 39°39' W 024°13'2218.8
2015-Feb-22 04:22N 39°52' W 023°50'1518.7
2015-Feb-22 03:33N 40°01' W 023°34'4018.8
2015-Feb-22 01:26N 40°24' W 022°52'2118.6
2015-Feb-22 00:20N 40°36' W 022°30'1518.8
2015-Feb-21 23:33N 40°45' W 022°14'  
2015-Feb-19 11:32N 49°37' W 000°35'5 4.7
2015-Feb-19 10:33N 49°36' W 000°29'1616.2
2015-Feb-19 09:34N 49°30' W 000°05'1312.8
2015-Feb-19 08:33N 49°26' E 000°13'10 9.8
2015-Feb-19 07:34N 49°28' E 000°28'1 0.1
2015-Feb-18 20:06N 49°29' E 000°29'5 9.9
2015-Feb-18 19:34N 49°26' E 000°22'1514.7
2015-Feb-18 18:33N 49°28' W 000°01'6 5.8
2015-Feb-18 17:34N 49°30' W 000°09'6 6.2
2015-Feb-18 16:33N 49°36' W 000°12'7 7.2
2015-Feb-18 15:33N 49°43' W 000°12'1414.2
2015-Feb-18 14:33N 49°57' W 000°11'3114.4
2015-Feb-18 12:24N 50°28' W 000°02'1315.3
2015-Feb-18 11:34N 50°31' E 000°17'1414.2
2015-Feb-18 10:34N 50°36' E 000°38'1313.4
2015-Feb-18 09:33N 50°43' E 000°56'1414.0
2015-Feb-18 08:32N 50°52' E 001°14'1616.2
2015-Feb-18 07:34N 51°04' E 001°30'2221.9
2015-Feb-18 06:33N 51°20' E 001°54'1616.4
2015-Feb-18 05:33N 51°21' E 002°21'  
Track history (hours):
 
Tides and Currents Weather Stations Pressure Air Temp Water Temp Dewpoint Dewpoint Depression Visibility Wind Speed Wind Dir Waves Ship Positions

Crown Topaz

Last reported at 2015-Feb-28 05:18 UTC. Time now 2015-Mar-05 06:36 UTC.
Position N 16°54' W 062°35'.

Length 152 m; draft 6.7 m.

Type: Cargo ship. MMSI: 357144000.

Date/timePositionNaut miles runAvg speedWind from/ knotsBaromVisibWave heightAir tempDewpointWater temp
2015-Feb-28 05:18N 16°54' W 062°35'1519.8
2015-Feb-28 04:33N 16°43' W 062°25'2520.0
2015-Feb-28 03:19N 16°24' W 062°09'  
2015-Feb-22 23:27N 36°17' W 030°06'2319.4
2015-Feb-22 22:15N 36°31' W 029°43'1619.7
2015-Feb-22 21:25N 36°41' W 029°26'1719.4
2015-Feb-22 20:33N 36°50' W 029°09'1919.1
2015-Feb-22 19:33N 37°02' W 028°50'1919.0
2015-Feb-22 18:33N 37°13' W 028°31'1918.9
2015-Feb-22 17:33N 37°25' W 028°12'1918.7
2015-Feb-22 16:33N 37°35' W 027°53'1918.8
2015-Feb-22 15:33N 37°46' W 027°33'1919.2
2015-Feb-22 14:34N 37°58' W 027°14'1919.3
2015-Feb-22 13:33N 38°09' W 026°54'1919.3
2015-Feb-22 12:33N 38°21' W 026°34'1919.4
2015-Feb-22 11:33N 38°32' W 026°14'1919.4
2015-Feb-22 10:34N 38°43' W 025°54'1919.3
2015-Feb-22 09:33N 38°55' W 025°34'1919.1
2015-Feb-22 08:33N 39°06' W 025°14'1919.2
2015-Feb-22 07:34N 39°17' W 024°54'1919.1
2015-Feb-22 06:33N 39°29' W 024°34'1918.9
2015-Feb-22 05:32N 39°39' W 024°13'2218.8
2015-Feb-22 04:22N 39°52' W 023°50'1518.7
2015-Feb-22 03:33N 40°01' W 023°34'4018.8
2015-Feb-22 01:26N 40°24' W 022°52'2118.6
2015-Feb-22 00:20N 40°36' W 022°30'1518.8
2015-Feb-21 23:33N 40°45' W 022°14'  
2015-Feb-19 11:32N 49°37' W 000°35'5 4.7
2015-Feb-19 10:33N 49°36' W 000°29'1616.2
2015-Feb-19 09:34N 49°30' W 000°05'1312.8
2015-Feb-19 08:33N 49°26' E 000°13'10 9.8
2015-Feb-19 07:34N 49°28' E 000°28'1 0.1
2015-Feb-18 20:06N 49°29' E 000°29'5 9.9
2015-Feb-18 19:34N 49°26' E 000°22'1514.7
2015-Feb-18 18:33N 49°28' W 000°01'6 5.8
2015-Feb-18 17:34N 49°30' W 000°09'6 6.2
2015-Feb-18 16:33N 49°36' W 000°12'7 7.2
2015-Feb-18 15:33N 49°43' W 000°12'1414.2
2015-Feb-18 14:33N 49°57' W 000°11'3114.4
2015-Feb-18 12:24N 50°28' W 000°02'1315.3
2015-Feb-18 11:34N 50°31' E 000°17'1414.2
2015-Feb-18 10:34N 50°36' E 000°38'1313.4
2015-Feb-18 09:33N 50°43' E 000°56'1414.0
2015-Feb-18 08:32N 50°52' E 001°14'1616.2
2015-Feb-18 07:34N 51°04' E 001°30'2221.9
2015-Feb-18 06:33N 51°20' E 001°54'1616.4
2015-Feb-18 05:33N 51°21' E 002°21'  

Dump ship's entire track history